KGTF/GTF METAR and TAF weather

Enter ICAO airport designator
Station Type Date Time Source
KGTF METAR 2020/04/05 14:53 UTC NOAA

KGTF 051453Z 26004KT 10SM OVC110 M04/M07 A2966 RMK AO2 SLP091 T10391067 58001


Station Type Date Time Source
KGTF Decoded METAR 2020/04/05 14:53 UTC NOAA

GREAT FALLS INTERNATIONAL, MT, United States (KGTF) 47-28N 111-23W 1119M
Apr 05, 2020 - 10:53 AM EDT / 2020.04.05 1453 UTC
Wind: from the W (260 degrees) at 5 MPH (4 KT):0
Visibility: 10 mile(s):0
Sky conditions: overcast
Temperature: 25.0 F (-3.9 C)
Windchill: 19 F (-7 C):1
Dew Point: 19.9 F (-6.7 C)
Relative Humidity: 80%
Pressure (altimeter): 29.66 in. Hg (1004 hPa)
Pressure tendency: 0.00 inches (0.1 hPa) lower than three hours ago
ob: KGTF 051453Z 26004KT 10SM OVC110 M04/M07 A2966 RMK AO2 SLP091 T10391067 58001
cycle: 15

Station Type Date Time Source
KGTF TAF 2020/04/05 12:42 UTC NOAA

TAF KGTF 051139Z 0512/0612 VRB05KT P6SM VCFG SCT050 OVC080
FM051500 VRB05KT P6SM FEW070 SCT150
FM051800 23008KT P6SM SCT200

Example: see airport list